Terminal Aerodrome Forecast
Issued by NWS

Home | Current Version | Previous Version | Text Only | Print | Product List | Glossary On
Versions: 1 2 3 4 5 6 7 8 9 10 11 12 13
000
FTUS42 KMLB 302300 RRA
TAFTIX
TAF
KTIX 302341Z 3100/3124 01009KT P6SM FEW040 BKN250
     FM311300 04012G18KT P6SM FEW040 BKN250
      AMD NOT SKED 3102/3112=

USA.gov is the U.S. government's official web portal to all federal, state and local government web resources and services.